KTYQ

Details ICAO KTYQ
Name Indianapolis Executive
Region United States
Timezone America/Indiana/Indianapolis (UTC-5.0)
Plans Departing 70
Arriving 28
Stats Elevation 922 ft / 281 m (AMSL)
Location 40.030668° -86.251435°
Runways 1
Magnetic Variation 4.709° W
Sunrise 2017-12-14 13:00:42 UTC / 2017-12-14 08:00:42 Local
Sunset 2017-12-14 22:21:42 UTC / 2017-12-14 17:21:42 Local
Advertisement - Login to hide

Runways

ID Width Length Bearing (true) Bearing (mag) Surface Threshold Offset Overrun Length
18 100 ft / 30 m 5,510 ft / 1,679 m 179.47° 184.18° Asphalt 0 ft / 0 m 0 ft / 0 m
36 100 ft / 30 m 5,510 ft / 1,679 m 359.47° 4.18° Asphalt 157 ft / 48 m 0 ft / 0 m

Approach Navaids

Runway Type Ident Frequency Range Bearing (true) Bearing (mag) Slope Elevation
36 Localiser ITYQ 111.30 MHz 18 nm / 33 km 359.24° 3.94° - 922 ft / 281 m (AMSL)
36 Glidescope ITYQ 111.30 MHz 10 nm / 19 km 359.47° 4.18° 3.00° 920 ft / 280 m (AMSL)

Map

Weather


0- 5 10 15 20 25 30 35+ Temperature / ° C

Clouds and Precipitation
Forecast for 2017-12-15 00:00 UTC. Updated 3 minutes ago

Ground ~20,000 ft ~40,000 ft Winds

METAR

KTYQ 142115Z AUTO 05004KT 10SM CLR M02/M11 A3004 RMK AO2 T10251109

TAF

Not found

Frequencies

Recorded 120.72 MHz AWOS 3
Approach 127.15 MHz APP/DEP
Unicom 123.05 MHz CTAF/UNICOM
Approach 124.65 MHz APP/DEP
Warning: Do not use this data for real-world aviation or navigation. No guarantee of current accuracy is given.